Time;durP1;ratioP1;P1;durP2;ratioP2;P2;SDS_P1;SDS_P2;PMS_P1;PMS_P2;Temp;Humidity;BMP_temperature;BMP_pressure;BME280_temperature;BME280_humidity;BME280_pressure;Samples;Min_cycle;Max_cycle;Signal;HPM_P1;HPM_P2
2023/04/11 00:00:57;;;;;;;2.10;0.90;;;22.10;99.90;;;;;;5111681;28;20669;-72
2023/04/11 00:03:24;;;;;;;4.13;1.00;;;22.40;99.90;;;;;;5112262;28;20175;-72
2023/04/11 00:05:51;;;;;;;2.10;0.77;;;22.60;99.90;;;;;;5100568;28;20190;-73
2023/04/11 00:08:19;;;;;;;1.83;1.00;;;22.90;99.90;;;;;;5095655;28;20182;-71
2023/04/11 00:10:46;;;;;;;3.53;1.10;;;23.30;99.90;;;;;;5100089;28;20183;-73
2023/04/11 00:13:13;;;;;;;0.83;0.70;;;23.50;99.40;;;;;;5094088;28;20179;-72
2023/04/11 00:15:41;;;;;;;4.30;1.10;;;23.10;99.10;;;;;;5103645;28;20301;-71
2023/04/11 00:18:11;;;;;;;1.57;0.90;;;23.00;99.90;;;;;;5114594;28;20228;-72
2023/04/11 00:20:38;;;;;;;4.43;1.10;;;22.80;99.90;;;;;;5100560;28;20262;-74
2023/04/11 00:23:07;;;;;;;2.93;1.10;;;22.70;99.90;;;;;;5095286;28;20179;-72
2023/04/11 00:25:36;;;;;;;3.23;0.93;;;23.10;99.90;;;;;;5094089;28;20191;-72
2023/04/11 00:28:03;;;;;;;1.83;1.10;;;23.40;99.90;;;;;;5093527;28;20925;-72
2023/04/11 00:30:31;;;;;;;3.47;1.00;;;23.80;99.60;;;;;;5093983;28;20190;-71
2023/04/11 00:32:58;;;;;;;1.37;0.60;;;24.10;99.90;;;;;;5092631;28;20183;-72
2023/04/11 00:35:25;;;;;;;3.33;1.03;;;24.10;96.50;;;;;;5093454;28;20239;-72
2023/04/11 00:37:54;;;;;;;4.40;1.17;;;23.60;98.50;;;;;;5093848;28;20175;-72
2023/04/11 00:40:22;;;;;;;1.97;1.00;;;23.70;98.70;;;;;;5105123;28;20186;-71
2023/04/11 00:42:49;;;;;;;4.40;1.20;;;23.80;98.50;;;;;;5093179;28;20183;-71
2023/04/11 00:45:17;;;;;;;3.83;1.00;;;23.70;97.30;;;;;;5102480;28;20178;-73
2023/04/11 00:47:44;;;;;;;4.47;1.00;;;23.90;99.30;;;;;;5114267;28;20660;-71
2023/04/11 00:50:15;;;;;;;0.97;0.80;;;24.00;99.90;;;;;;5113732;28;20178;-72
2023/04/11 00:52:46;;;;;;;1.97;0.73;;;24.00;99.90;;;;;;5114011;28;20174;-69
2023/04/11 00:55:14;;;;;;;2.63;0.93;;;24.00;97.30;;;;;;5112835;28;20251;-71
2023/04/11 00:57:43;;;;;;;4.13;0.97;;;24.50;99.40;;;;;;5112345;28;20182;-71
2023/04/11 01:00:11;;;;;;;2.30;1.10;;;24.10;97.30;;;;;;5093440;28;20248;-72
2023/04/11 01:02:41;;;;;;;4.53;0.90;;;23.80;99.90;;;;;;5093398;28;20191;-73
2023/04/11 01:05:14;;;;;;;3.93;1.10;;;24.10;99.90;;;;;;5093115;28;20183;-71
2023/04/11 01:07:45;;;;;;;2.47;0.87;;;24.50;99.90;;;;;;5108965;28;20197;-70
2023/04/11 01:10:13;;;;;;;2.73;0.90;;;25.00;99.30;;;;;;5093277;28;20716;-72
2023/04/11 01:12:41;;;;;;;4.93;1.00;;;24.90;98.90;;;;;;5093612;28;20194;-71
2023/04/11 01:15:09;;;;;;;1.73;0.80;;;25.00;99.90;;;;;;5105378;28;20218;-72
2023/04/11 01:17:40;;;;;;;1.67;0.90;;;25.20;99.90;;;;;;5103932;28;20245;-72
2023/04/11 01:20:08;;;;;;;2.00;0.90;;;25.70;97.30;;;;;;5093598;28;20179;-72
2023/04/11 01:22:39;;;;;;;3.47;0.87;;;25.30;99.40;;;;;;5093019;28;20239;-74
2023/04/11 01:25:06;;;;;;;3.47;0.80;;;25.60;99.90;;;;;;5093141;28;20187;-72
2023/04/11 01:27:35;;;;;;;5.10;1.33;;;25.50;96.70;;;;;;5099051;28;20184;-72
2023/04/11 01:30:03;;;;;;;2.57;0.73;;;25.80;97.60;;;;;;5092901;28;20190;-72
2023/04/11 01:32:31;;;;;;;1.63;0.70;;;26.00;98.60;;;;;;5092894;28;20179;-71
2023/04/11 01:34:59;;;;;;;3.93;0.87;;;26.10;97.50;;;;;;5105814;28;20218;-70
2023/04/11 01:37:27;;;;;;;3.23;0.90;;;26.60;98.40;;;;;;5092941;28;20175;-72
2023/04/11 01:39:54;;;;;;;1.83;0.80;;;26.40;93.90;;;;;;5097300;28;20194;-71
2023/04/11 01:42:23;;;;;;;2.03;0.70;;;25.80;96.60;;;;;;5110975;28;20230;-70
2023/04/11 01:44:51;;;;;;;4.60;0.87;;;26.50;99.10;;;;;;5100898;28;20218;-70
2023/04/11 01:47:19;;;;;;;3.57;0.80;;;26.40;96.20;;;;;;5099785;28;20214;-71
2023/04/11 01:49:46;;;;;;;3.67;1.10;;;26.40;95.40;;;;;;5097029;28;20195;-71
2023/04/11 01:52:14;;;;;;;3.93;1.10;;;26.30;96.30;;;;;;5098851;28;20196;-72
2023/04/11 01:54:41;;;;;;;4.23;0.87;;;26.30;95.70;;;;;;5110448;28;20748;-72
2023/04/11 01:57:08;;;;;;;1.83;0.70;;;26.70;99.60;;;;;;5104545;28;20186;-71
2023/04/11 01:59:36;;;;;;;1.60;0.73;;;27.30;91.60;;;;;;5092519;28;20187;-72
2023/04/11 02:02:03;;;;;;;1.83;0.83;;;26.70;90.50;;;;;;5092478;28;20613;-71
2023/04/11 02:04:30;;;;;;;3.27;0.77;;;26.40;92.70;;;;;;5091824;28;20249;-72
2023/04/11 02:06:58;;;;;;;1.47;0.90;;;26.10;92.20;;;;;;5092397;28;20175;-74
2023/04/11 02:09:25;;;;;;;3.20;0.80;;;25.50;94.40;;;;;;5092186;28;20183;-70
2023/04/11 02:11:53;;;;;;;3.50;0.90;;;25.90;95.00;;;;;;5090669;28;20623;-71
2023/04/11 02:14:20;;;;;;;2.30;0.80;;;26.10;92.30;;;;;;5091999;28;20242;-72
2023/04/11 02:16:53;;;;;;;2.07;0.70;;;25.90;93.20;;;;;;5091903;28;20174;-72
2023/04/11 02:19:21;;;;;;;2.43;1.00;;;26.00;96.30;;;;;;5091693;28;20191;-70
2023/04/11 02:21:48;;;;;;;3.40;0.70;;;26.10;96.50;;;;;;5092159;28;20167;-71
2023/04/11 02:24:16;;;;;;;3.50;1.10;;;26.50;91.30;;;;;;5092065;28;20642;-71
2023/04/11 02:26:43;;;;;;;2.57;0.87;;;26.30;93.80;;;;;;5091460;28;20175;-70
2023/04/11 02:29:10;;;;;;;2.43;0.83;;;26.50;94.30;;;;;;5091996;28;20645;-72
2023/04/11 02:37:48;;;;;;;1.90;1.00;;;25.70;96.30;;;;;;5108527;28;20552;-73
2023/04/11 02:40:16;;;;;;;1.37;0.80;;;25.20;98.20;;;;;;5105533;28;20263;-68
2023/04/11 02:42:43;;;;;;;1.83;0.80;;;25.00;99.90;;;;;;5104517;28;20171;-69
2023/04/11 02:49:27;;;;;;;2.20;0.80;;;26.10;96.90;;;;;;5102769;28;20189;-70
2023/04/11 02:51:55;;;;;;;2.93;0.90;;;26.10;94.10;;;;;;5112157;28;20171;-70
2023/04/11 02:54:22;;;;;;;3.77;1.00;;;26.40;96.60;;;;;;5111564;28;20194;-68
2023/04/11 02:56:49;;;;;;;4.10;1.00;;;26.20;92.90;;;;;;5111688;28;20263;-70
2023/04/11 02:59:17;;;;;;;2.83;0.97;;;26.40;96.40;;;;;;5112102;28;20650;-69
2023/04/11 03:01:47;;;;;;;3.20;0.80;;;27.00;90.00;;;;;;5112016;28;20171;-71
2023/04/11 03:04:15;;;;;;;5.33;1.20;;;26.10;93.70;;;;;;5097963;28;20249;-71
2023/04/11 03:06:42;;;;;;;3.03;1.13;;;25.20;94.30;;;;;;5091986;28;20175;-71
2023/04/11 03:09:10;;;;;;;2.67;0.97;;;24.80;99.40;;;;;;5095754;28;20180;-70
2023/04/11 03:11:37;;;;;;;2.77;0.90;;;24.90;98.00;;;;;;5095840;28;20179;-69
2023/04/11 03:14:05;;;;;;;6.40;1.17;;;25.00;99.90;;;;;;5105204;28;20194;-70
2023/04/11 03:16:32;;;;;;;3.17;1.10;;;26.00;99.90;;;;;;5104823;28;20660;-69
2023/04/11 03:19:00;;;;;;;4.50;0.93;;;26.90;93.80;;;;;;5095116;28;20272;-70
2023/04/11 03:21:27;;;;;;;4.10;0.73;;;26.60;94.50;;;;;;5096151;28;20244;-70
2023/04/11 03:23:54;;;;;;;5.17;1.03;;;26.20;95.00;;;;;;5100711;28;20560;-70
2023/04/11 03:26:26;;;;;;;4.80;0.90;;;25.20;95.40;;;;;;5115232;27;20269;-70
2023/04/11 03:28:54;;;;;;;3.90;1.00;;;24.90;97.90;;;;;;5113793;28;20187;-69
2023/04/11 03:31:21;;;;;;;2.27;1.00;;;24.30;99.90;;;;;;5112083;28;20189;-70
2023/04/11 03:33:49;;;;;;;4.27;0.93;;;24.40;99.90;;;;;;5115277;27;20175;-70
2023/04/11 03:36:16;;;;;;;4.67;1.00;;;24.10;99.90;;;;;;5101132;28;20168;-70
2023/04/11 03:38:43;;;;;;;4.07;1.13;;;23.90;99.90;;;;;;5095120;28;20265;-69
2023/04/11 03:41:11;;;;;;;4.30;0.93;;;23.80;99.90;;;;;;5113060;28;20265;-70
2023/04/11 03:43:38;;;;;;;3.80;1.17;;;23.60;99.90;;;;;;5114841;28;20770;-69
2023/04/11 03:46:05;;;;;;;5.83;0.90;;;23.50;99.90;;;;;;5115068;28;20178;-69
2023/04/11 03:48:33;;;;;;;2.97;1.10;;;23.50;99.90;;;;;;5114898;28;20641;-69
2023/04/11 03:51:00;;;;;;;7.97;1.30;;;23.30;99.90;;;;;;5110069;27;20228;-69
2023/04/11 03:53:28;;;;;;;3.67;0.93;;;23.30;99.90;;;;;;5112105;28;20179;-70
2023/04/11 03:55:55;;;;;;;3.30;1.10;;;23.40;99.90;;;;;;5108780;28;20736;-70
2023/04/11 03:58:23;;;;;;;2.43;0.90;;;23.40;99.90;;;;;;5114955;28;20202;-69
2023/04/11 04:00:50;;;;;;;2.93;0.80;;;23.50;99.90;;;;;;5099519;28;20661;-72
2023/04/11 04:03:17;;;;;;;3.20;0.90;;;23.50;99.90;;;;;;5094253;28;20175;-70
2023/04/11 04:05:45;;;;;;;5.23;1.20;;;23.40;99.90;;;;;;5094627;28;20204;-70
2023/04/11 04:08:12;;;;;;;4.33;1.20;;;23.30;99.90;;;;;;5094521;28;20725;-72
2023/04/11 04:10:40;;;;;;;1.77;0.70;;;23.40;99.90;;;;;;5093752;28;20183;-70
2023/04/11 04:13:07;;;;;;;2.20;1.07;;;23.20;99.90;;;;;;5095327;28;20172;-69
2023/04/11 04:15:35;;;;;;;4.47;1.33;;;23.20;99.90;;;;;;5114721;28;20213;-70
2023/04/11 04:18:02;;;;;;;2.17;0.93;;;23.10;99.90;;;;;;5113386;28;20263;-71
2023/04/11 04:20:29;;;;;;;2.10;0.80;;;23.00;99.90;;;;;;5104750;28;20183;-70
2023/04/11 04:22:58;;;;;;;4.27;0.97;;;22.90;99.90;;;;;;5092860;28;20570;-69
2023/04/11 04:25:26;;;;;;;3.07;0.90;;;23.00;99.90;;;;;;5097444;28;20833;-70
2023/04/11 04:27:56;;;;;;;4.63;1.37;;;23.20;99.90;;;;;;5102776;28;20183;-69
2023/04/11 04:30:27;;;;;;;3.77;1.37;;;23.30;99.90;;;;;;5114048;27;20232;-70
2023/04/11 04:32:59;;;;;;;2.73;0.60;;;23.30;99.90;;;;;;5114089;28;20542;-69
2023/04/11 04:35:27;;;;;;;2.43;1.00;;;23.20;99.90;;;;;;5113857;28;20255;-70
2023/04/11 04:37:54;;;;;;;2.93;0.90;;;23.10;99.90;;;;;;5114487;28;20166;-70
2023/04/11 04:40:22;;;;;;;3.53;0.63;;;23.10;99.90;;;;;;5113425;28;20269;-69
2023/04/11 04:42:56;;;;;;;2.00;0.80;;;22.80;99.90;;;;;;5114437;27;20174;-70
2023/04/11 04:45:25;;;;;;;3.13;1.07;;;22.70;99.90;;;;;;5114054;28;20668;-71
2023/04/11 04:47:52;;;;;;;3.30;1.30;;;22.70;99.90;;;;;;5101484;28;20179;-69
2023/04/11 04:50:20;;;;;;;4.73;0.80;;;22.60;99.90;;;;;;5094937;28;20191;-70
2023/04/11 04:52:47;;;;;;;3.93;1.00;;;22.60;99.90;;;;;;5093998;28;20174;-70
2023/04/11 04:55:15;;;;;;;5.93;1.53;;;22.70;99.90;;;;;;5093657;28;20219;-70
2023/04/11 04:57:42;;;;;;;5.27;1.33;;;22.60;99.90;;;;;;5093626;28;20228;-70
2023/04/11 05:00:10;;;;;;;2.83;1.10;;;22.50;99.90;;;;;;5097204;28;20192;-70
2023/04/11 05:02:39;;;;;;;10.13;1.83;;;22.50;99.90;;;;;;5093112;28;20212;-69
2023/04/11 05:05:07;;;;;;;8.63;2.00;;;22.30;99.90;;;;;;5111032;28;20193;-70
2023/04/11 05:07:35;;;;;;;6.60;1.60;;;22.30;99.90;;;;;;5113739;28;20171;-69
2023/04/11 05:10:02;;;;;;;8.03;1.93;;;22.10;99.90;;;;;;5111133;28;20189;-70
2023/04/11 05:12:30;;;;;;;6.60;1.50;;;22.10;99.90;;;;;;5093446;28;20245;-69
2023/04/11 05:14:57;;;;;;;5.83;1.23;;;22.00;99.90;;;;;;5093035;28;20199;-70
2023/04/11 05:17:27;;;;;;;4.77;1.67;;;22.00;99.90;;;;;;5092811;28;20231;-69
2023/04/11 05:19:55;;;;;;;5.57;1.60;;;21.90;99.90;;;;;;5093018;28;20206;-69
2023/04/11 05:22:22;;;;;;;11.37;1.97;;;21.90;99.90;;;;;;5093137;28;20233;-70
2023/04/11 05:24:49;;;;;;;8.77;2.00;;;21.90;99.90;;;;;;5092776;28;20215;-70
2023/04/11 05:27:17;;;;;;;9.43;1.70;;;21.90;99.90;;;;;;5100570;28;20178;-70
2023/04/11 05:29:45;;;;;;;12.17;2.00;;;21.90;99.90;;;;;;5099729;28;20202;-70
2023/04/11 05:32:12;;;;;;;8.37;1.70;;;21.80;99.90;;;;;;5092675;28;20183;-70
2023/04/11 05:34:52;;;;;;;7.67;2.30;;;21.80;99.90;;;;;;5092741;28;20214;-69
2023/04/11 05:37:19;;;;;;;7.20;2.37;;;21.80;99.90;;;;;;5092394;28;20171;-71
2023/04/11 05:39:47;;;;;;;8.40;2.20;;;21.70;99.90;;;;;;5107986;28;20349;-71
2023/04/11 05:42:18;;;;;;;12.17;1.60;;;21.70;99.90;;;;;;5111502;28;20182;-69
2023/04/11 05:44:45;;;;;;;9.10;2.20;;;21.60;99.90;;;;;;5112472;28;20197;-70
2023/04/11 05:47:12;;;;;;;11.73;1.67;;;21.60;99.90;;;;;;5113071;28;20187;-70
2023/04/11 05:49:40;;;;;;;9.07;2.27;;;21.50;99.90;;;;;;5111739;28;20268;-70
2023/04/11 05:52:07;;;;;;;7.80;1.57;;;21.40;99.90;;;;;;5107951;28;20190;-70
2023/04/11 05:54:36;;;;;;;12.80;2.00;;;21.40;99.90;;;;;;5112411;28;20198;-68
2023/04/11 05:57:05;;;;;;;6.63;2.23;;;21.40;99.90;;;;;;5112890;28;20178;-70
2023/04/11 05:59:33;;;;;;;10.27;1.97;;;21.30;99.90;;;;;;5109579;28;20236;-69
2023/04/11 06:02:01;;;;;;;7.77;2.20;;;21.20;99.90;;;;;;5112573;28;20219;-71
2023/04/11 06:04:28;;;;;;;6.43;1.63;;;21.20;99.90;;;;;;5092937;28;20254;-70
2023/04/11 06:06:56;;;;;;;7.13;1.87;;;21.20;99.90;;;;;;5097563;28;20190;-70
2023/04/11 06:09:23;;;;;;;5.93;1.60;;;21.20;99.90;;;;;;5111008;28;20177;-69
2023/04/11 06:11:51;;;;;;;9.80;2.07;;;21.20;99.90;;;;;;5097457;27;20236;-71
2023/04/11 06:14:18;;;;;;;7.83;2.17;;;21.20;99.90;;;;;;5091677;28;20207;-71
2023/04/11 06:16:45;;;;;;;10.70;1.73;;;21.30;99.90;;;;;;5091957;28;20174;-69
2023/04/11 06:19:13;;;;;;;6.83;1.40;;;21.30;99.90;;;;;;5092189;28;20258;-69
2023/04/11 06:21:40;;;;;;;6.67;1.87;;;21.30;99.90;;;;;;5091468;28;20197;-69
2023/04/11 06:24:11;;;;;;;9.23;2.30;;;21.30;99.90;;;;;;5092021;28;20179;-70
2023/04/11 06:26:38;;;;;;;6.57;1.60;;;21.30;99.90;;;;;;5091919;28;20697;-70
2023/04/11 06:29:06;;;;;;;4.70;1.40;;;21.30;99.90;;;;;;5091591;28;20191;-69
2023/04/11 06:31:34;;;;;;;7.40;1.63;;;21.30;99.90;;;;;;5091665;28;20179;-70
2023/04/11 06:34:02;;;;;;;4.97;1.50;;;21.40;99.90;;;;;;5092323;28;20191;-70
2023/04/11 06:36:30;;;;;;;6.77;1.90;;;21.30;99.90;;;;;;5111257;28;20235;-69
2023/04/11 06:38:57;;;;;;;8.03;1.90;;;21.20;99.90;;;;;;5112230;28;20612;-71
2023/04/11 06:41:25;;;;;;;9.53;2.17;;;21.20;99.90;;;;;;5098097;28;20631;-71
2023/04/11 06:43:52;;;;;;;6.50;2.17;;;21.20;99.90;;;;;;5099011;28;20182;-69
2023/04/11 06:46:19;;;;;;;6.70;1.70;;;21.10;99.90;;;;;;5111821;28;20209;-71
2023/04/11 06:48:47;;;;;;;7.17;1.47;;;20.90;99.90;;;;;;5112101;28;20186;-71
2023/04/11 06:51:14;;;;;;;4.80;1.80;;;20.90;99.90;;;;;;5111941;28;20173;-70
2023/04/11 06:53:41;;;;;;;7.80;1.63;;;20.70;99.90;;;;;;5111587;28;20663;-72
2023/04/11 06:56:10;;;;;;;8.90;2.17;;;20.60;99.90;;;;;;5112015;28;20210;-72
2023/04/11 06:58:37;;;;;;;8.37;2.07;;;20.50;99.90;;;;;;5110599;28;20186;-72
2023/04/11 07:01:05;;;;;;;6.13;1.83;;;20.40;99.90;;;;;;5111971;28;20174;-72
2023/04/11 07:03:32;;;;;;;10.03;1.77;;;20.20;99.90;;;;;;5112093;28;20214;-71
2023/04/11 07:06:00;;;;;;;8.37;2.27;;;20.10;99.90;;;;;;5111940;28;20184;-71
2023/04/11 07:12:19;;;;;;;7.80;2.20;;;19.80;99.90;;;;;;5112258;28;20186;-71
2023/04/11 07:14:46;;;;;;;11.50;1.90;;;19.60;99.90;;;;;;5111326;28;20606;-72
2023/04/11 07:17:14;;;;;;;8.63;2.07;;;19.40;99.90;;;;;;5111725;28;20210;-70
2023/04/11 07:19:41;;;;;;;7.97;1.60;;;19.30;99.90;;;;;;5111935;28;20174;-71
2023/04/11 07:22:08;;;;;;;6.97;2.10;;;19.10;99.90;;;;;;5111220;28;20533;-72
2023/04/11 07:24:36;;;;;;;8.47;2.30;;;19.00;99.90;;;;;;5111839;28;20177;-72
2023/04/11 07:27:03;;;;;;;10.23;1.90;;;18.90;99.90;;;;;;5111862;28;20718;-70
2023/04/11 07:29:30;;;;;;;6.93;2.00;;;18.80;99.90;;;;;;5109869;28;20557;-71
2023/04/11 07:31:58;;;;;;;14.47;3.00;;;18.60;99.90;;;;;;5111962;28;20731;-72
2023/04/11 07:34:25;;;;;;;10.40;2.27;;;18.60;99.90;;;;;;5111352;28;20657;-72
2023/04/11 07:36:56;;;;;;;8.13;2.53;;;18.50;99.90;;;;;;5111291;28;20193;-73
2023/04/11 07:39:24;;;;;;;12.67;2.10;;;18.50;99.90;;;;;;5106561;28;20258;-72
2023/04/11 07:41:52;;;;;;;16.23;2.10;;;18.50;99.90;;;;;;5102174;28;20181;-71
2023/04/11 07:44:19;;;;;;;8.97;2.47;;;18.40;99.90;;;;;;5097724;28;20189;-72
2023/04/11 07:46:46;;;;;;;9.23;1.93;;;18.20;99.90;;;;;;5101501;28;20181;-72
2023/04/11 07:49:14;;;;;;;9.73;2.33;;;18.10;99.90;;;;;;5101472;28;20258;-72
2023/04/11 07:51:42;;;;;;;10.47;2.57;;;17.90;99.90;;;;;;5097098;28;20182;-72
2023/04/11 07:54:09;;;;;;;8.77;2.23;;;17.80;99.90;;;;;;5104463;28;20175;-72
2023/04/11 07:56:36;;;;;;;6.47;2.20;;;17.70;99.90;;;;;;5104553;28;20206;-71
2023/04/11 07:59:04;;;;;;;15.17;2.83;;;17.70;99.90;;;;;;5105906;28;20183;-72
2023/04/11 08:01:31;;;;;;;9.67;3.70;;;17.60;99.90;;;;;;5102759;28;20266;-69
2023/04/11 08:03:59;;;;;;;13.20;2.40;;;17.50;99.90;;;;;;5104361;27;20175;-72
2023/04/11 08:06:27;;;;;;;9.70;2.90;;;17.40;99.90;;;;;;5105435;28;20192;-73
2023/04/11 08:08:55;;;;;;;9.63;2.20;;;17.30;99.90;;;;;;5105037;28;20271;-71
2023/04/11 08:11:22;;;;;;;11.03;2.30;;;17.40;99.90;;;;;;5105001;28;20183;-71
2023/04/11 08:13:50;;;;;;;6.37;2.30;;;17.30;99.90;;;;;;5104752;28;20220;-70
2023/04/11 08:16:17;;;;;;;9.53;2.40;;;17.30;99.90;;;;;;5103179;28;20272;-71
2023/04/11 08:18:46;;;;;;;8.17;2.53;;;17.20;99.90;;;;;;5102915;28;20210;-70
2023/04/11 08:21:14;;;;;;;9.53;3.13;;;17.20;99.90;;;;;;5101103;28;20187;-72
2023/04/11 08:23:41;;;;;;;8.27;2.13;;;17.10;99.90;;;;;;5101031;28;20184;-69
2023/04/11 08:26:10;;;;;;;12.27;2.23;;;17.10;99.90;;;;;;5101631;28;20181;-72
2023/04/11 08:28:38;;;;;;;8.20;2.10;;;17.00;99.90;;;;;;5100499;28;20190;-72
2023/04/11 08:31:05;;;;;;;8.53;2.33;;;17.00;99.90;;;;;;5102272;28;20187;-73
2023/04/11 08:33:33;;;;;;;8.40;2.80;;;16.90;99.90;;;;;;5103651;28;20616;-72
2023/04/11 08:36:00;;;;;;;7.37;2.63;;;16.90;99.90;;;;;;5105495;28;20222;-71
2023/04/11 08:38:28;;;;;;;7.83;2.73;;;16.80;99.90;;;;;;5113171;28;20219;-71
2023/04/11 08:40:55;;;;;;;10.07;3.03;;;16.70;99.90;;;;;;5113816;28;20179;-72
2023/04/11 08:43:23;;;;;;;9.90;3.07;;;16.70;99.90;;;;;;5113621;28;20179;-73
2023/04/11 08:45:50;;;;;;;10.27;3.40;;;16.60;99.90;;;;;;5093597;28;20199;-72
2023/04/11 08:48:24;;;;;;;8.87;3.13;;;16.60;99.90;;;;;;5093359;28;20203;-71
2023/04/11 08:50:51;;;;;;;14.40;3.30;;;16.50;99.90;;;;;;5093180;28;20230;-72
2023/04/11 08:53:20;;;;;;;7.00;3.50;;;16.50;99.90;;;;;;5105317;28;20183;-72
2023/04/11 08:55:48;;;;;;;8.17;2.97;;;16.50;99.90;;;;;;5106638;28;20219;-71
2023/04/11 08:58:17;;;;;;;13.10;4.50;;;16.40;99.90;;;;;;5113378;28;20179;-72
2023/04/11 09:00:45;;;;;;;10.47;3.80;;;16.30;99.90;;;;;;5113739;28;20193;-71
2023/04/11 09:03:14;;;;;;;7.60;3.40;;;16.20;99.90;;;;;;5112328;28;20589;-72
2023/04/11 09:05:44;;;;;;;10.40;3.67;;;16.10;99.90;;;;;;5108453;28;20194;-72
2023/04/11 09:08:14;;;;;;;13.53;4.20;;;16.10;99.90;;;;;;5092989;28;20719;-72
2023/04/11 09:10:46;;;;;;;14.00;4.60;;;16.00;99.90;;;;;;5092965;28;20184;-72
2023/04/11 09:13:22;;;;;;;13.60;6.03;;;16.00;99.90;;;;;;5092541;28;20171;-72
2023/04/11 09:16:16;;;;;;;10.47;5.60;;;16.10;99.90;;;;;;5099077;28;20218;-71
2023/04/11 09:18:45;;;;;;;15.70;5.13;;;16.00;99.90;;;;;;5109533;28;20254;-71
2023/04/11 09:21:14;;;;;;;16.73;4.83;;;16.00;99.90;;;;;;5101011;28;20191;-71
2023/04/11 09:23:43;;;;;;;20.67;4.80;;;15.90;99.90;;;;;;5112033;28;20178;-73
2023/04/11 09:26:12;;;;;;;12.47;4.77;;;15.90;99.90;;;;;;5106575;28;20222;-72
2023/04/11 09:28:52;;;;;;;9.80;4.27;;;15.80;99.90;;;;;;5108420;28;20187;-72
2023/04/11 09:31:20;;;;;;;17.30;3.87;;;15.70;99.90;;;;;;5093967;28;20174;-72
2023/04/11 09:33:56;;;;;;;12.33;3.90;;;15.80;99.90;;;;;;5107815;28;20179;-72
2023/04/11 09:36:25;;;;;;;9.17;3.73;;;15.70;99.90;;;;;;5092292;28;20235;-73
2023/04/11 09:38:53;;;;;;;13.37;4.33;;;15.70;99.90;;;;;;5093236;28;20167;-71
2023/04/11 09:41:37;;;;;;;11.60;4.57;;;15.60;99.90;;;;;;5107442;28;20186;-73
2023/04/11 09:44:04;;;;;;;16.23;5.30;;;15.50;99.90;;;;;;5112901;28;20166;-72
2023/04/11 09:46:32;;;;;;;12.07;4.17;;;15.50;99.90;;;;;;5113827;27;20174;-72
2023/04/11 09:49:02;;;;;;;14.67;4.50;;;15.50;99.90;;;;;;5114069;28;20187;-72
2023/04/11 09:51:30;;;;;;;12.20;4.53;;;15.50;99.90;;;;;;5114161;28;20170;-71
2023/04/11 09:53:57;;;;;;;11.43;4.73;;;15.40;99.90;;;;;;5113399;28;20182;-71
2023/04/11 09:56:26;;;;;;;14.17;4.20;;;15.40;99.90;;;;;;5097218;28;20231;-72
2023/04/11 09:58:56;;;;;;;8.23;4.10;;;15.40;99.90;;;;;;5113489;28;20253;-73
2023/04/11 10:01:24;;;;;;;10.20;4.57;;;15.40;99.90;;;;;;5104385;28;20652;-73
2023/04/11 10:03:52;;;;;;;9.93;4.30;;;15.40;99.90;;;;;;5113124;28;20186;-73
2023/04/11 10:06:33;;;;;;;8.97;4.23;;;15.30;99.90;;;;;;5113091;28;20181;-73
2023/04/11 10:09:12;;;;;;;9.87;4.33;;;15.20;99.90;;;;;;5113441;28;20199;-72
2023/04/11 10:11:45;;;;;;;10.70;4.13;;;15.20;99.90;;;;;;5111413;28;20621;-71
2023/04/11 10:14:37;;;;;;;9.60;3.80;;;15.20;99.90;;;;;;5113105;28;20181;-70
2023/04/11 10:17:18;;;;;;;8.53;4.00;;;15.20;99.90;;;;;;5112945;28;20171;-71
2023/04/11 10:19:47;;;;;;;9.93;3.70;;;15.20;99.90;;;;;;5093391;28;20274;-72
2023/04/11 10:22:48;;;;;;;8.40;4.30;;;15.10;99.90;;;;;;5092598;28;20183;-73
2023/04/11 10:25:24;;;;;;;8.73;4.20;;;15.10;99.90;;;;;;5092740;28;20209;-73
2023/04/11 10:28:04;;;;;;;10.93;4.10;;;15.10;99.90;;;;;;5092738;28;20236;-72
2023/04/11 10:30:41;;;;;;;8.17;4.03;;;15.10;99.90;;;;;;5092764;28;20163;-73
2023/04/11 10:33:14;;;;;;;9.70;4.00;;;15.00;99.90;;;;;;5092597;28;20193;-71
2023/04/11 10:36:13;;;;;;;11.27;4.73;;;15.00;99.90;;;;;;5092386;28;20259;-72
2023/04/11 10:38:50;;;;;;;11.40;4.00;;;15.00;99.90;;;;;;5059148;28;20190;-72
2023/04/11 10:41:24;;;;;;;11.73;4.70;;;15.00;99.90;;;;;;5092788;28;20638;-73
2023/04/11 10:43:52;;;;;;;10.10;4.50;;;14.90;99.90;;;;;;5092592;28;20167;-71
2023/04/11 10:46:24;;;;;;;13.40;4.50;;;14.90;99.90;;;;;;5092793;28;20502;-73
2023/04/11 10:49:04;;;;;;;10.37;4.50;;;14.90;99.90;;;;;;5092827;28;20179;-72
2023/04/11 10:51:33;;;;;;;5.73;3.67;;;14.90;99.90;;;;;;5092868;28;20554;-73
2023/04/11 10:54:01;;;;;;;11.10;4.70;;;14.80;99.90;;;;;;5092259;28;20179;-72
2023/04/11 10:56:47;;;;;;;15.73;4.90;;;14.80;99.90;;;;;;5092385;28;20179;-72
2023/04/11 10:59:49;;;;;;;10.50;3.70;;;14.80;99.90;;;;;;5093014;28;20175;-73
2023/04/11 11:02:20;;;;;;;13.17;4.03;;;14.90;99.90;;;;;;5060145;28;20190;-73
2023/04/11 11:04:49;;;;;;;8.43;3.97;;;14.80;99.90;;;;;;5092249;28;20265;-70
2023/04/11 11:07:16;;;;;;;9.67;4.07;;;14.80;99.90;;;;;;5092576;28;20183;-73
2023/04/11 11:09:49;;;;;;;7.80;3.80;;;14.90;99.90;;;;;;5092661;28;20184;-72
2023/04/11 11:12:17;;;;;;;8.40;4.20;;;14.90;99.90;;;;;;5092494;28;20182;-72
2023/04/11 11:14:46;;;;;;;8.47;3.70;;;14.80;99.90;;;;;;5091989;28;20214;-72
2023/04/11 11:17:16;;;;;;;11.00;4.17;;;14.90;99.90;;;;;;5092417;28;20223;-73
2023/04/11 11:19:47;;;;;;;10.30;4.03;;;14.80;99.90;;;;;;5092552;28;20190;-72
2023/04/11 11:22:24;;;;;;;10.43;3.60;;;14.70;99.90;;;;;;5092435;28;20175;-70
2023/04/11 11:24:51;;;;;;;10.13;3.80;;;14.70;99.90;;;;;;5092578;28;20171;-73
2023/04/11 11:27:21;;;;;;;11.03;3.80;;;14.70;99.90;;;;;;5092586;28;20172;-73
2023/04/11 11:29:49;;;;;;;8.53;4.17;;;14.70;99.90;;;;;;5095810;28;20911;-71
2023/04/11 11:32:31;;;;;;;12.00;4.10;;;14.80;99.90;;;;;;5096220;28;20236;-73
2023/04/11 11:34:59;;;;;;;6.83;3.40;;;14.80;99.90;;;;;;5096079;28;20198;-73
2023/04/11 11:37:26;;;;;;;12.43;4.13;;;14.80;99.90;;;;;;5096126;28;20173;-72
2023/04/11 11:39:54;;;;;;;7.90;3.93;;;14.70;99.90;;;;;;5096007;28;20175;-72
2023/04/11 11:42:21;;;;;;;9.40;4.07;;;14.80;99.90;;;;;;5096144;28;20176;-72
2023/04/11 11:44:48;;;;;;;8.77;3.67;;;14.70;99.90;;;;;;5095665;28;20195;-72
2023/04/11 11:47:16;;;;;;;13.40;4.47;;;14.70;99.90;;;;;;5095719;28;20312;-70
2023/04/11 11:49:45;;;;;;;7.90;3.60;;;14.70;99.90;;;;;;5095720;28;20171;-72
2023/04/11 11:52:31;;;;;;;11.53;3.60;;;14.70;99.90;;;;;;5095552;28;20725;-72
2023/04/11 11:54:59;;;;;;;7.77;3.43;;;14.70;99.90;;;;;;5095597;28;20207;-73
2023/04/11 11:57:27;;;;;;;12.17;3.97;;;14.70;99.90;;;;;;5095752;28;20171;-73
2023/04/11 12:00:00;;;;;;;8.60;3.30;;;14.70;99.90;;;;;;5095384;28;20175;-73
2023/04/11 12:02:28;;;;;;;6.13;3.10;;;14.70;99.90;;;;;;5096637;28;20179;-74
2023/04/11 12:05:04;;;;;;;6.37;3.47;;;14.70;99.90;;;;;;5109836;28;20182;-74
2023/04/11 12:07:33;;;;;;;10.47;3.23;;;14.70;99.90;;;;;;5114269;28;20170;-73
2023/04/11 12:10:05;;;;;;;9.67;3.63;;;14.70;99.90;;;;;;5115545;28;20187;-73
2023/04/11 12:12:37;;;;;;;8.87;3.07;;;14.60;99.90;;;;;;5113678;28;20598;-72
2023/04/11 12:15:17;;;;;;;8.90;2.67;;;14.60;99.90;;;;;;5113694;28;20286;-73
2023/04/11 12:17:54;;;;;;;7.90;3.07;;;14.50;99.90;;;;;;5106080;28;20246;-72
2023/04/11 12:20:26;;;;;;;9.83;2.80;;;14.50;99.90;;;;;;5095146;28;20190;-72
2023/04/11 12:22:54;;;;;;;7.73;2.97;;;14.40;99.90;;;;;;5098019;28;20650;-72
2023/04/11 12:25:24;;;;;;;13.13;2.27;;;14.50;99.90;;;;;;5108270;28;20183;-72
2023/04/11 12:27:51;;;;;;;10.23;2.90;;;14.40;99.90;;;;;;5115162;28;20182;-71
2023/04/11 12:30:19;;;;;;;14.97;3.40;;;14.40;99.90;;;;;;5113814;28;20193;-73
2023/04/11 12:32:46;;;;;;;20.77;3.53;;;14.40;99.90;;;;;;5115407;28;20544;-72
2023/04/11 12:35:14;;;;;;;19.10;2.90;;;14.40;99.90;;;;;;5115241;28;20216;-73
2023/04/11 12:37:41;;;;;;;9.40;2.57;;;14.40;99.90;;;;;;5100370;27;20245;-70
2023/04/11 12:40:10;;;;;;;10.90;2.37;;;14.40;99.90;;;;;;5093678;28;20183;-71
2023/04/11 12:42:42;;;;;;;8.43;2.53;;;14.30;99.90;;;;;;5094679;28;20543;-72
2023/04/11 12:45:11;;;;;;;8.93;2.57;;;14.30;99.90;;;;;;5094880;28;20610;-74
2023/04/11 12:47:38;;;;;;;7.87;2.93;;;14.20;99.90;;;;;;5094347;28;20180;-74
2023/04/11 12:50:07;;;;;;;11.57;2.83;;;14.20;99.90;;;;;;5094483;28;20270;-73
2023/04/11 12:52:34;;;;;;;11.17;2.90;;;14.20;99.90;;;;;;5106615;28;20206;-72
2023/04/11 12:55:02;;;;;;;10.77;2.77;;;14.20;99.90;;;;;;5103514;28;20657;-75
2023/04/11 12:57:30;;;;;;;9.03;2.13;;;14.20;99.90;;;;;;5106116;28;20258;-72
2023/04/11 12:59:58;;;;;;;5.20;2.03;;;14.20;99.90;;;;;;5100037;28;20239;-72
2023/04/11 13:02:25;;;;;;;6.87;1.80;;;14.10;99.90;;;;;;5094472;28;20174;-72
2023/04/11 13:04:52;;;;;;;9.03;1.73;;;14.10;99.90;;;;;;5094348;28;20524;-73
2023/04/11 13:07:21;;;;;;;4.67;2.10;;;14.00;99.90;;;;;;5100682;28;20239;-74
2023/04/11 13:09:49;;;;;;;6.57;2.60;;;14.00;99.90;;;;;;5110834;28;20590;-72